Wibaux, MT (59353)

10:27 PM MDT on June 29, 2015 (GMT -0600)
Dawson Community | | Change Station
CLOSE
Current Station
Airport
Location: Glendive,
Elevation: 2457 ft
Nearby Weather Stations
Active Advisory: Dense Smoke Advisory

Elev 2457 ft 47.14 °N, 104.81 °W | Updated 1 hour ago

Clear
Clear
82 °F
Feels Like 82 °F
N
15
Wind Variable Wind from NE
Gusts 21 mph

Today
High -- | Low -- °F
--% Chance of Precip.
Yesterday
High -- | Low -- °F
Precip. -- in
5:04 AM 8:55 PM
Waxing Gibbous, 96% visible
Pressure 29.97 in
Visibility 10.0 miles
Clouds Clear
Heat Index 82 °F
Dew Point 59 °F
Humidity 45%
Rainfall 0.00 in
Snow Depth Not available.
UV 0 out of 12
Pollen 5.80 out of 12
Air Quality Not available.
Flu Activity Sporadic
METAR KGDV 300315Z AUTO 04013G18KT 10SM CLR 28/15 A2997 RMK AO1

More Conditions Fewer Conditions

Pressure 29.97 in
Visibility 10.0 miles
Clouds Clear
Heat Index 82 °F
Dew Point 59 °F
Humidity 45%
Rainfall 0.00 in
Snow Depth Not available.
UV 0 out of 12
Pollen 5.80 out of 12
Air Quality Not available.
Flu Activity Sporadic
METAR KGDV 300315Z AUTO 04013G18KT 10SM CLR 28/15 A2997 RMK AO1

More Conditions Fewer Conditions

10-Day Weather Forecast

×

Almanac

Astronomy

Jun. 29, 2015 Rise Set
Actual Time
Civil Twilight
Nautical Twilight
Astronomical Twilight
Moon
Length of Visible Light
Length of Day
Tomorrow will be .
, % of the Moon is Illuminated

Today's Extremes

State Highs State Lows

Community

WunderPhotos

Upload Photos

1,833,959 photos uploaded!

WunderBlogs® & News

Nearby

Air Quality

  Air Quality AQ Index Pollutant
Not available.

Snow Depth

Station Depth Elevation

Earthquake Activity

City Distance Mag. Time & Date
Minimum magnitude displayed is 2.5.

Coastal Water Temperatures

Place Temperature

Stations

Nearby Weather Stations

Station Location Temp. Windchill Dew Point Humidity Wind Precip. Elev Updated Type
                   
Dense Smoke Advisory
Statement as of 8:12 PM MDT on June 29, 2015

... Dense smoke advisory in effect until 6 am MDT Tuesday...

The National Weather Service in Glasgow has issued a dense smoke
advisory... which is in effect until 6 am MDT Tuesday.

* Visibility... less than a mile at times.

* Impacts... difficulty breathing and burning eyes.

Precautionary/preparedness actions...

People with health issues should stay indoors with air
conditioning if possible. Seek medical attention if necessary.

A dense smoke advisory means smoke will create limiting
visibilities. If driving... slow down... use your headlights... and
leave plenty of distance ahead of you in case a sudden stop is
needed.